Time;durP1;ratioP1;P1;durP2;ratioP2;P2;SDS_P1;SDS_P2;PMS_P1;PMS_P2;Temp;Humidity;BMP_temperature;BMP_pressure;BME280_temperature;BME280_humidity;BME280_pressure;Samples;Min_cycle;Max_cycle;Signal;HPM_P1;HPM_P2
2023/03/24 00:00:20;;;;;;;4.03;3.72;;;;;;;;;;5095606;28;20807;-90
2023/03/24 00:02:50;;;;;;;3.65;3.20;;;;;;;;;;5095292;28;20047;-90
2023/03/24 00:05:21;;;;;;;2.53;2.33;;;;;;;;;;5115859;28;20058;-90
2023/03/24 00:07:48;;;;;;;2.83;2.63;;;;;;;;;;5116283;28;20093;-91
2023/03/24 00:10:21;;;;;;;2.58;2.47;;;;;;;;;;5116440;28;20044;-91
2023/03/24 00:12:48;;;;;;;4.38;4.18;;;;;;;;;;5113589;28;20051;-90
2023/03/24 00:15:15;;;;;;;5.10;4.70;;;;;;;;;;5095681;28;20048;-90
2023/03/24 00:17:42;;;;;;;3.42;3.30;;;;;;;;;;5095398;28;20044;-91
2023/03/24 00:20:13;;;;;;;4.45;4.15;;;;;;;;;;5095547;28;20044;-91
2023/03/24 00:22:41;;;;;;;;;;;;;;;;;;5095777;28;20153;-92
2023/03/24 00:25:08;;;;;;;4.05;3.80;;;;;;;;;;5095920;28;19920;-91
2023/03/24 00:27:36;;;;;;;4.22;4.03;;;;;;;;;;5098774;28;20115;-90
2023/03/24 00:30:03;;;;;;;2.65;2.55;;;;;;;;;;5115699;28;20083;-91
2023/03/24 00:32:30;;;;;;;5.90;5.57;;;;;;;;;;5115969;28;20047;-91
2023/03/24 00:34:57;;;;;;;3.85;3.65;;;;;;;;;;5115980;28;20074;-91
2023/03/24 00:37:25;;;;;;;4.22;4.03;;;;;;;;;;5115243;28;20097;-90
2023/03/24 00:39:52;;;;;;;2.78;2.65;;;;;;;;;;5115547;28;20052;-90
2023/03/24 00:42:18;;;;;;;4.20;3.15;;;;;;;;;;5115372;28;20051;-91
2023/03/24 00:44:45;;;;;;;2.42;2.33;;;;;;;;;;5114524;28;20052;-90
2023/03/24 00:47:11;;;;;;;3.60;3.40;;;;;;;;;;5115821;28;20047;-90
2023/03/24 00:49:43;;;;;;;5.30;4.90;;;;;;;;;;5115280;28;20704;-90
2023/03/24 00:52:10;;;;;;;2.83;2.67;;;;;;;;;;5113968;28;20483;-90
2023/03/24 00:54:38;;;;;;;3.38;3.25;;;;;;;;;;5115561;28;20039;-92
2023/03/24 00:57:11;;;;;;;3.80;3.60;;;;;;;;;;5120389;28;20031;-92
2023/03/24 00:59:41;;;;;;;2.33;2.13;;;;;;;;;;5117975;28;20048;-91
2023/03/24 01:02:10;;;;;;;3.47;3.17;;;;;;;;;;5114858;28;20047;-91
2023/03/24 01:04:37;;;;;;;4.30;4.10;;;;;;;;;;5115239;28;20055;-89
2023/03/24 01:07:04;;;;;;;2.00;1.90;;;;;;;;;;5114948;28;20406;-90
2023/03/24 01:09:32;;;;;;;1.75;1.65;;;;;;;;;;5113905;28;20048;-90
2023/03/24 01:12:00;;;;;;;4.00;3.78;;;;;;;;;;5115751;28;20086;-90
2023/03/24 01:14:27;;;;;;;2.42;2.33;;;;;;;;;;5114417;28;20047;-91
2023/03/24 01:16:53;;;;;;;3.28;3.10;;;;;;;;;;5114820;28;20092;-91
2023/03/24 01:19:20;;;;;;;2.25;2.10;;;;;;;;;;5114606;28;20050;-90
2023/03/24 01:21:49;;;;;;;2.92;2.35;;;;;;;;;;5114606;28;20062;-90
2023/03/24 01:24:16;;;;;;;4.15;2.80;;;;;;;;;;5113963;28;20491;-90
2023/03/24 01:26:43;;;;;;;4.05;3.80;;;;;;;;;;5109940;28;20419;-91
2023/03/24 01:29:11;;;;;;;3.60;3.40;;;;;;;;;;5115212;28;20051;-90
2023/03/24 01:31:37;;;;;;;3.20;3.03;;;;;;;;;;5114674;28;20051;-90
2023/03/24 01:34:04;;;;;;;4.10;3.90;;;;;;;;;;5114449;28;20040;-89
2023/03/24 01:36:31;;;;;;;4.80;4.43;;;;;;;;;;5114829;28;20566;-90
2023/03/24 01:38:59;;;;;;;4.18;3.92;;;;;;;;;;5114198;28;20036;-90
2023/03/24 01:41:27;;;;;;;3.70;3.40;;;;;;;;;;5114438;28;20082;-90
2023/03/24 01:43:53;;;;;;;4.10;3.90;;;;;;;;;;5111268;28;20058;-90
2023/03/24 01:46:22;;;;;;;4.53;4.22;;;;;;;;;;5114969;28;20047;-90
2023/03/24 01:48:50;;;;;;;3.05;2.72;;;;;;;;;;5114416;28;20047;-90
2023/03/24 01:51:19;;;;;;;1.88;1.77;;;;;;;;;;5114517;28;20509;-91
2023/03/24 01:53:47;;;;;;;3.72;3.53;;;;;;;;;;5115964;28;20086;-92
2023/03/24 01:56:14;;;;;;;3.60;3.38;;;;;;;;;;5116011;28;20052;-92
2023/03/24 01:58:43;;;;;;;3.03;2.88;;;;;;;;;;5116065;28;20077;-90
2023/03/24 02:01:09;;;;;;;3.88;3.70;;;;;;;;;;5112536;28;20097;-90
2023/03/24 02:03:40;;;;;;;2.67;2.55;;;;;;;;;;5114487;28;20043;-90
2023/03/24 02:06:07;;;;;;;3.63;3.35;;;;;;;;;;5114320;28;20047;-91
2023/03/24 02:08:37;;;;;;;3.63;3.42;;;;;;;;;;5114650;28;20061;-91
2023/03/24 02:11:04;;;;;;;4.68;4.43;;;;;;;;;;5114806;28;20058;-91
2023/03/24 02:13:31;;;;;;;2.90;2.70;;;;;;;;;;5114004;28;20047;-90
2023/03/24 02:16:04;;;;;;;4.05;3.75;;;;;;;;;;5111925;28;20054;-91
2023/03/24 02:18:35;;;;;;;5.90;2.70;;;;;;;;;;5093784;28;20051;-90
2023/03/24 02:21:29;;;;;;;3.20;2.90;;;;;;;;;;5094110;28;20052;-90
2023/03/24 02:24:14;;;;;;;3.70;3.50;;;;;;;;;;5031517;28;20060;-89
2023/03/24 02:26:49;;;;;;;3.72;3.53;;;;;;;;;;5031770;28;20061;-89
2023/03/24 02:29:42;;;;;;;3.45;3.22;;;;;;;;;;5035409;28;20099;-89
2023/03/24 02:32:32;;;;;;;1.77;1.67;;;;;;;;;;4957054;29;20059;-90
2023/03/24 02:35:14;;;;;;;3.50;3.30;;;;;;;;;;4883033;29;20429;-90
2023/03/24 02:37:58;;;;;;;2.83;2.63;;;;;;;;;;4890999;29;20061;-92
2023/03/24 02:40:35;;;;;;;2.55;2.45;;;;;;;;;;4885801;29;20061;-92
2023/03/24 02:43:16;;;;;;;4.13;3.80;;;;;;;;;;4871547;29;20532;-90
2023/03/24 02:45:48;;;;;;;4.10;3.28;;;;;;;;;;4862471;29;20506;-89
2023/03/24 02:48:21;;;;;;;5.07;4.78;;;;;;;;;;4862963;29;20053;-89
2023/03/24 02:50:50;;;;;;;1.95;1.85;;;;;;;;;;4862752;29;20053;-89
2023/03/24 02:53:19;;;;;;;3.13;3.03;;;;;;;;;;4880284;29;20091;-89
2023/03/24 02:55:51;;;;;;;2.53;2.33;;;;;;;;;;4881695;29;20148;-90
2023/03/24 02:58:21;;;;;;;2.25;2.15;;;;;;;;;;4881758;29;20049;-90
2023/03/24 03:00:50;;;;;;;1.50;1.48;;;;;;;;;;4952668;29;20051;-90
2023/03/24 03:03:21;;;;;;;2.30;2.17;;;;;;;;;;4959981;29;20055;-90
2023/03/24 03:05:50;;;;;;;1.90;1.80;;;;;;;;;;4972407;29;20066;-89
2023/03/24 03:08:19;;;;;;;4.22;3.88;;;;;;;;;;5013011;28;20050;-90
2023/03/24 03:10:48;;;;;;;3.45;2.97;;;;;;;;;;5062449;28;20048;-90
2023/03/24 03:13:18;;;;;;;3.97;3.17;;;;;;;;;;5113731;28;20052;-89
2023/03/24 03:15:48;;;;;;;3.03;2.92;;;;;;;;;;5117864;28;20047;-90
2023/03/24 03:18:17;;;;;;;2.88;2.67;;;;;;;;;;5117751;28;20047;-90
2023/03/24 03:20:49;;;;;;;2.95;2.83;;;;;;;;;;5117467;28;20615;-90
2023/03/24 03:23:17;;;;;;;2.55;2.35;;;;;;;;;;5117526;28;20048;-90
2023/03/24 03:25:49;;;;;;;3.30;3.10;;;;;;;;;;5116826;28;20047;-89
2023/03/24 03:28:19;;;;;;;5.55;5.25;;;;;;;;;;5117290;28;20051;-90
2023/03/24 03:30:48;;;;;;;4.85;4.55;;;;;;;;;;5116650;28;20514;-90
2023/03/24 03:33:16;;;;;;;2.70;2.55;;;;;;;;;;5116512;28;20056;-90
2023/03/24 03:35:45;;;;;;;2.95;2.83;;;;;;;;;;5116913;28;20047;-90
2023/03/24 03:38:14;;;;;;;3.20;3.00;;;;;;;;;;5115813;28;20048;-90
2023/03/24 03:40:42;;;;;;;4.22;4.03;;;;;;;;;;5117015;28;20047;-91
2023/03/24 03:43:08;;;;;;;3.10;2.97;;;;;;;;;;5116098;28;20456;-91
2023/03/24 03:45:36;;;;;;;2.30;2.20;;;;;;;;;;5096614;28;20048;-91
2023/03/24 03:48:03;;;;;;;3.67;3.58;;;;;;;;;;5096334;28;20048;-91
2023/03/24 03:50:31;;;;;;;3.50;3.30;;;;;;;;;;5096137;28;20083;-90
2023/03/24 03:52:57;;;;;;;3.70;3.45;;;;;;;;;;5095329;28;20420;-90
2023/03/24 03:55:24;;;;;;;4.22;3.97;;;;;;;;;;5095804;28;20085;-91
2023/03/24 03:57:51;;;;;;;5.20;3.58;;;;;;;;;;5096017;28;20399;-91
2023/03/24 04:00:19;;;;;;;3.17;2.97;;;;;;;;;;5096180;28;20100;-91
2023/03/24 04:02:54;;;;;;;4.07;3.75;;;;;;;;;;5108916;28;20059;-91
2023/03/24 04:05:29;;;;;;;5.00;3.85;;;;;;;;;;5116092;28;20048;-90
2023/03/24 04:08:17;;;;;;;3.45;2.92;;;;;;;;;;5116260;28;20051;-90
2023/03/24 04:10:50;;;;;;;2.20;2.10;;;;;;;;;;5111030;27;20555;-90
2023/03/24 04:13:19;;;;;;;2.90;2.70;;;;;;;;;;5116085;28;20552;-90
2023/03/24 04:15:51;;;;;;;4.57;4.32;;;;;;;;;;5115854;27;20048;-90
2023/03/24 04:18:26;;;;;;;3.95;3.65;;;;;;;;;;5102109;28;20076;-90
2023/03/24 04:21:01;;;;;;;4.43;4.03;;;;;;;;;;5095973;28;20490;-90
2023/03/24 04:23:30;;;;;;;3.72;3.45;;;;;;;;;;5095711;28;20052;-91
2023/03/24 04:26:02;;;;;;;4.43;4.13;;;;;;;;;;5095298;28;20109;-90
2023/03/24 04:28:33;;;;;;;3.30;3.10;;;;;;;;;;5095472;28;20143;-90
2023/03/24 04:31:01;;;;;;;;;;;;;;;;;;5095793;28;20884;-90
2023/03/24 04:33:33;;;;;;;2.55;2.35;;;;;;;;;;5099576;28;19926;-90
2023/03/24 04:36:05;;;;;;;3.50;3.20;;;;;;;;;;5095627;28;20048;-90
2023/03/24 04:38:34;;;;;;;3.75;3.55;;;;;;;;;;5095596;28;20052;-90
2023/03/24 04:41:02;;;;;;;2.55;2.35;;;;;;;;;;5095114;28;20074;-90
2023/03/24 04:43:35;;;;;;;2.20;2.08;;;;;;;;;;5095110;28;20056;-90
2023/03/24 04:46:02;;;;;;;3.92;3.58;;;;;;;;;;5095044;28;20052;-90
2023/03/24 04:48:30;;;;;;;5.22;4.25;;;;;;;;;;5094691;28;20082;-90
2023/03/24 04:50:58;;;;;;;2.65;2.47;;;;;;;;;;5101374;28;20048;-91
2023/03/24 04:53:24;;;;;;;3.60;3.33;;;;;;;;;;5115558;28;20047;-90
2023/03/24 04:55:54;;;;;;;3.95;3.75;;;;;;;;;;5115406;27;20047;-90
2023/03/24 04:58:21;;;;;;;3.88;3.15;;;;;;;;;;5115483;28;20047;-89
2023/03/24 05:00:48;;;;;;;5.85;5.53;;;;;;;;;;5115175;28;20043;-90
2023/03/24 05:03:15;;;;;;;4.20;3.97;;;;;;;;;;5115525;27;20071;-90
2023/03/24 05:05:44;;;;;;;5.15;4.95;;;;;;;;;;5114574;28;20103;-90
2023/03/24 05:08:10;;;;;;;2.47;2.38;;;;;;;;;;5114042;28;20043;-90
2023/03/24 05:10:37;;;;;;;2.33;2.22;;;;;;;;;;5115377;28;20055;-89
2023/03/24 05:13:04;;;;;;;4.97;4.70;;;;;;;;;;5115372;28;20081;-90
2023/03/24 05:15:31;;;;;;;4.82;4.05;;;;;;;;;;5114928;28;20068;-91
2023/03/24 05:17:58;;;;;;;5.07;4.80;;;;;;;;;;5115420;28;20051;-91
2023/03/24 05:20:24;;;;;;;4.53;4.13;;;;;;;;;;5114554;28;20039;-91
2023/03/24 05:22:53;;;;;;;4.88;4.50;;;;;;;;;;5115425;28;20047;-90
2023/03/24 05:25:20;;;;;;;4.55;4.25;;;;;;;;;;5113874;28;20556;-93
2023/03/24 05:27:47;;;;;;;3.00;2.80;;;;;;;;;;5114867;28;20055;-91
2023/03/24 05:30:14;;;;;;;3.60;3.40;;;;;;;;;;5115372;28;20043;-90
2023/03/24 05:32:40;;;;;;;3.90;2.70;;;;;;;;;;5127336;28;20054;-90
2023/03/24 05:35:07;;;;;;;5.13;4.72;;;;;;;;;;5124924;28;20101;-91
2023/03/24 05:37:34;;;;;;;3.90;3.70;;;;;;;;;;5096580;28;20048;-91
2023/03/24 05:40:02;;;;;;;4.28;3.92;;;;;;;;;;5095788;28;20044;-91
2023/03/24 05:42:28;;;;;;;5.38;5.03;;;;;;;;;;5114404;28;20089;-91
2023/03/24 05:44:55;;;;;;;5.10;4.88;;;;;;;;;;5115178;28;20092;-90
2023/03/24 05:47:22;;;;;;;4.00;3.70;;;;;;;;;;5114922;28;20047;-89
2023/03/24 05:49:49;;;;;;;7.60;4.68;;;;;;;;;;5115291;28;20048;-91
2023/03/24 05:52:16;;;;;;;4.20;4.00;;;;;;;;;;5115482;28;20063;-90
2023/03/24 05:54:42;;;;;;;4.35;4.15;;;;;;;;;;5114548;28;20147;-89
2023/03/24 05:57:13;;;;;;;4.95;4.55;;;;;;;;;;5103193;28;20487;-89
2023/03/24 05:59:40;;;;;;;5.68;5.18;;;;;;;;;;5108279;28;20105;-90
2023/03/24 06:02:07;;;;;;;4.03;3.80;;;;;;;;;;5117140;28;20051;-89
2023/03/24 06:04:33;;;;;;;4.25;3.85;;;;;;;;;;5118434;28;20055;-90
2023/03/24 06:07:01;;;;;;;5.07;4.63;;;;;;;;;;5118452;28;20051;-90
2023/03/24 06:09:31;;;;;;;4.55;4.15;;;;;;;;;;5118734;28;20047;-89
2023/03/24 06:11:58;;;;;;;3.75;3.45;;;;;;;;;;5118438;28;20083;-90
2023/03/24 06:14:26;;;;;;;3.85;3.50;;;;;;;;;;5118129;28;20047;-91
2023/03/24 06:16:52;;;;;;;4.07;3.88;;;;;;;;;;5116125;28;20055;-89
2023/03/24 06:19:21;;;;;;;4.32;4.05;;;;;;;;;;5117430;28;20043;-89
2023/03/24 06:21:49;;;;;;;4.35;4.00;;;;;;;;;;5117254;27;20048;-90
2023/03/24 06:24:16;;;;;;;3.80;3.60;;;;;;;;;;5117586;28;20455;-90
2023/03/24 06:26:43;;;;;;;4.38;4.07;;;;;;;;;;5117602;28;20056;-91
2023/03/24 06:29:10;;;;;;;3.65;3.45;;;;;;;;;;5118414;28;20138;-90
2023/03/24 06:31:38;;;;;;;4.50;4.10;;;;;;;;;;5117623;28;20457;-89
2023/03/24 06:34:05;;;;;;;5.75;5.45;;;;;;;;;;5116320;28;20043;-90
2023/03/24 06:36:33;;;;;;;5.30;4.97;;;;;;;;;;5117393;28;20130;-89
2023/03/24 06:39:01;;;;;;;6.07;4.97;;;;;;;;;;5118024;28;20055;-90
2023/03/24 06:41:27;;;;;;;7.28;5.65;;;;;;;;;;5117199;28;20039;-89
2023/03/24 06:43:54;;;;;;;4.90;4.50;;;;;;;;;;5117748;28;20055;-90
2023/03/24 06:46:20;;;;;;;5.05;4.32;;;;;;;;;;5117550;28;20100;-89
2023/03/24 06:48:48;;;;;;;6.95;6.30;;;;;;;;;;5115675;28;20051;-90
2023/03/24 06:51:15;;;;;;;4.55;4.35;;;;;;;;;;5113921;28;20043;-90
2023/03/24 06:53:44;;;;;;;6.57;6.07;;;;;;;;;;5117500;28;20047;-90
2023/03/24 06:56:15;;;;;;;4.10;3.80;;;;;;;;;;5117610;28;20418;-90
2023/03/24 06:58:41;;;;;;;;;;;;;;;;;;5118028;28;20487;-91
2023/03/24 07:01:08;;;;;;;5.70;5.40;;;;;;;;;;5117409;28;20051;-90
2023/03/24 07:03:34;;;;;;;7.47;4.53;;;;;;;;;;5117418;28;20047;-89
2023/03/24 07:06:03;;;;;;;5.55;5.05;;;;;;;;;;5116682;28;20040;-90
2023/03/24 07:08:30;;;;;;;4.97;4.53;;;;;;;;;;5117018;28;20051;-90
2023/03/24 07:10:57;;;;;;;7.15;5.60;;;;;;;;;;5118078;28;20131;-90
2023/03/24 07:13:23;;;;;;;4.80;4.57;;;;;;;;;;5115718;28;20103;-90
2023/03/24 07:15:50;;;;;;;6.90;5.72;;;;;;;;;;5116519;28;20048;-89
2023/03/24 07:18:18;;;;;;;5.60;5.22;;;;;;;;;;5116096;28;20527;-89
2023/03/24 07:20:44;;;;;;;7.57;7.15;;;;;;;;;;5116269;28;20052;-89
2023/03/24 07:23:12;;;;;;;8.32;7.82;;;;;;;;;;5104961;28;20048;-90
2023/03/24 07:25:39;;;;;;;7.22;6.68;;;;;;;;;;5096075;28;20044;-89
2023/03/24 07:28:06;;;;;;;6.10;5.60;;;;;;;;;;5115894;28;20507;-90
2023/03/24 07:30:34;;;;;;;6.00;5.47;;;;;;;;;;5116478;28;20055;-90
2023/03/24 07:33:01;;;;;;;7.70;7.20;;;;;;;;;;5116624;28;20517;-89
2023/03/24 07:35:28;;;;;;;6.05;5.63;;;;;;;;;;5115582;28;20410;-90
2023/03/24 07:37:57;;;;;;;6.57;6.07;;;;;;;;;;5115833;28;20071;-91
2023/03/24 07:40:25;;;;;;;7.18;6.68;;;;;;;;;;5115859;28;20120;-89
2023/03/24 07:42:51;;;;;;;8.95;8.00;;;;;;;;;;5115168;28;20051;-89
2023/03/24 07:45:18;;;;;;;7.50;7.05;;;;;;;;;;5115780;28;20044;-90
2023/03/24 07:47:45;;;;;;;7.97;7.47;;;;;;;;;;5115838;28;20055;-91
2023/03/24 07:50:13;;;;;;;9.15;8.25;;;;;;;;;;5115865;28;20052;-90
2023/03/24 07:52:39;;;;;;;6.03;5.53;;;;;;;;;;5115931;28;20104;-90
2023/03/24 07:55:07;;;;;;;8.45;7.93;;;;;;;;;;5115988;28;20055;-90
2023/03/24 07:57:36;;;;;;;11.05;10.30;;;;;;;;;;5115761;28;20043;-90
2023/03/24 08:00:07;;;;;;;9.45;8.13;;;;;;;;;;5115473;28;20048;-89
2023/03/24 08:02:34;;;;;;;10.38;9.30;;;;;;;;;;5115411;28;20063;-94
2023/03/24 08:05:01;;;;;;;8.75;8.15;;;;;;;;;;5115573;28;20043;-90
2023/03/24 08:07:27;;;;;;;7.90;7.30;;;;;;;;;;5114194;28;20507;-90
2023/03/24 08:09:54;;;;;;;9.77;9.27;;;;;;;;;;5115628;28;20048;-90
2023/03/24 08:12:20;;;;;;;8.05;7.45;;;;;;;;;;5115400;28;20051;-90
2023/03/24 08:14:48;;;;;;;10.48;9.77;;;;;;;;;;5115940;28;20047;-90
2023/03/24 08:17:15;;;;;;;10.93;10.23;;;;;;;;;;5116055;28;20085;-89
2023/03/24 08:19:41;;;;;;;10.20;9.57;;;;;;;;;;5115470;28;20448;-90
2023/03/24 08:22:08;;;;;;;9.57;8.77;;;;;;;;;;5116137;28;20072;-89
2023/03/24 08:24:35;;;;;;;11.00;10.35;;;;;;;;;;5115667;28;20048;-90
2023/03/24 08:27:05;;;;;;;11.13;10.40;;;;;;;;;;5115230;28;20491;-90
2023/03/24 08:29:33;;;;;;;8.07;7.38;;;;;;;;;;5115729;28;20075;-90
2023/03/24 08:32:01;;;;;;;10.25;9.55;;;;;;;;;;5115756;28;20462;-90
2023/03/24 08:34:27;;;;;;;11.27;10.57;;;;;;;;;;5115937;28;20132;-91
2023/03/24 08:36:54;;;;;;;12.57;11.75;;;;;;;;;;5115423;28;20801;-90
2023/03/24 08:39:21;;;;;;;13.43;12.55;;;;;;;;;;5115914;28;20096;-91
2023/03/24 08:41:49;;;;;;;12.45;11.60;;;;;;;;;;5115392;28;20055;-90
2023/03/24 08:44:15;;;;;;;13.85;13.15;;;;;;;;;;5115160;28;20052;-90
2023/03/24 08:46:42;;;;;;;14.27;13.02;;;;;;;;;;5115387;28;20052;-91
2023/03/24 08:49:10;;;;;;;11.70;11.10;;;;;;;;;;5115157;28;20097;-91
2023/03/24 08:51:36;;;;;;;13.48;12.63;;;;;;;;;;5115312;28;20097;-90
2023/03/24 08:54:03;;;;;;;13.80;12.85;;;;;;;;;;5113584;28;20062;-89
2023/03/24 08:56:30;;;;;;;13.68;12.98;;;;;;;;;;5114099;28;20074;-91
2023/03/24 08:58:56;;;;;;;11.25;10.23;;;;;;;;;;5115224;28;20048;-90
2023/03/24 09:01:23;;;;;;;11.50;10.77;;;;;;;;;;5114624;28;20055;-91
2023/03/24 09:03:50;;;;;;;13.43;12.63;;;;;;;;;;5113222;28;20051;-91
2023/03/24 09:06:18;;;;;;;13.45;12.75;;;;;;;;;;5114433;28;20130;-91
2023/03/24 09:08:45;;;;;;;12.10;11.48;;;;;;;;;;5094028;28;20511;-91
2023/03/24 09:11:14;;;;;;;16.40;15.40;;;;;;;;;;5093948;28;20484;-90
2023/03/24 09:13:40;;;;;;;17.23;16.33;;;;;;;;;;5104434;28;20111;-91
2023/03/24 09:16:07;;;;;;;14.43;13.27;;;;;;;;;;5114595;28;20055;-91
2023/03/24 09:18:33;;;;;;;14.98;13.88;;;;;;;;;;5114579;28;20055;-91
2023/03/24 09:21:01;;;;;;;26.63;25.40;;;;;;;;;;5114711;28;20070;-91
2023/03/24 09:23:30;;;;;;;14.02;12.93;;;;;;;;;;5114418;28;20051;-91
2023/03/24 09:25:57;;;;;;;14.95;14.05;;;;;;;;;;5114104;28;20090;-90
2023/03/24 09:28:23;;;;;;;13.80;13.05;;;;;;;;;;5114553;28;20060;-91
2023/03/24 09:30:50;;;;;;;13.40;12.60;;;;;;;;;;5114126;28;20039;-90
2023/03/24 09:33:17;;;;;;;16.30;15.35;;;;;;;;;;5114812;28;20218;-92
2023/03/24 09:35:43;;;;;;;14.07;13.32;;;;;;;;;;5114772;28;20128;-91
2023/03/24 09:38:11;;;;;;;13.88;13.25;;;;;;;;;;5114383;28;20055;-91
2023/03/24 09:40:39;;;;;;;13.93;13.20;;;;;;;;;;5114273;28;20388;-92
2023/03/24 09:43:08;;;;;;;15.10;14.27;;;;;;;;;;5113865;28;20055;-91
2023/03/24 09:45:37;;;;;;;16.13;15.23;;;;;;;;;;5104305;28;20052;-90
2023/03/24 09:48:05;;;;;;;13.80;12.98;;;;;;;;;;5106041;28;20051;-89
2023/03/24 09:50:33;;;;;;;16.15;15.10;;;;;;;;;;5114544;28;20047;-90
2023/03/24 09:53:02;;;;;;;13.40;12.77;;;;;;;;;;5114215;28;20055;-90
2023/03/24 09:55:29;;;;;;;15.68;14.75;;;;;;;;;;5114568;28;20105;-90
2023/03/24 09:57:59;;;;;;;14.90;14.20;;;;;;;;;;5113607;28;20059;-91
2023/03/24 10:00:27;;;;;;;13.57;12.75;;;;;;;;;;5114252;28;20052;-91
2023/03/24 10:02:53;;;;;;;15.60;14.82;;;;;;;;;;5113765;28;20044;-91
2023/03/24 10:05:22;;;;;;;15.32;14.50;;;;;;;;;;5114114;28;20108;-91
2023/03/24 10:07:52;;;;;;;17.02;16.05;;;;;;;;;;5113862;28;20043;-90
2023/03/24 10:10:22;;;;;;;14.15;13.52;;;;;;;;;;5113322;28;20052;-91
2023/03/24 10:12:49;;;;;;;13.52;12.82;;;;;;;;;;5114194;28;20456;-90
2023/03/24 10:15:21;;;;;;;12.93;12.15;;;;;;;;;;5113689;28;20062;-91
2023/03/24 10:17:52;;;;;;;15.70;14.68;;;;;;;;;;5101216;28;20051;-90
2023/03/24 10:20:24;;;;;;;19.25;18.33;;;;;;;;;;5113867;28;20096;-90
2023/03/24 10:22:56;;;;;;;14.40;13.65;;;;;;;;;;5113555;28;20098;-90
2023/03/24 10:25:25;;;;;;;17.33;16.48;;;;;;;;;;5113522;28;20558;-91
2023/03/24 10:27:53;;;;;;;17.00;16.10;;;;;;;;;;5113711;28;20051;-90
2023/03/24 10:30:23;;;;;;;15.15;14.45;;;;;;;;;;5113655;28;20054;-90
2023/03/24 10:32:49;;;;;;;13.90;13.20;;;;;;;;;;5113254;28;20047;-90
2023/03/24 10:35:18;;;;;;;13.35;12.70;;;;;;;;;;5113953;28;20055;-90
2023/03/24 10:37:45;;;;;;;17.52;16.63;;;;;;;;;;5113841;28;20048;-91
2023/03/24 10:40:16;;;;;;;29.05;27.85;;;;;;;;;;5113543;28;20052;-91
2023/03/24 10:42:48;;;;;;;18.80;17.95;;;;;;;;;;5119229;28;20066;-90
2023/03/24 10:45:20;;;;;;;16.27;15.50;;;;;;;;;;5116594;28;20043;-91
2023/03/24 10:47:48;;;;;;;17.85;17.02;;;;;;;;;;5114613;28;20063;-89
2023/03/24 10:50:15;;;;;;;17.35;16.58;;;;;;;;;;5129746;28;20062;-89
2023/03/24 10:52:42;;;;;;;14.40;13.70;;;;;;;;;;5130204;28;20052;-90
2023/03/24 10:55:15;;;;;;;22.48;21.55;;;;;;;;;;5128605;28;20126;-89
2023/03/24 10:57:44;;;;;;;18.48;17.58;;;;;;;;;;5122455;28;20479;-89
2023/03/24 11:00:18;;;;;;;18.10;17.30;;;;;;;;;;5118720;28;20048;-91
2023/03/24 11:02:45;;;;;;;21.23;20.33;;;;;;;;;;5119807;28;20558;-90
2023/03/24 11:05:18;;;;;;;18.95;18.15;;;;;;;;;;5117686;28;20044;-91
2023/03/24 11:07:46;;;;;;;18.38;17.48;;;;;;;;;;5117323;28;20135;-91
2023/03/24 11:10:15;;;;;;;20.08;19.23;;;;;;;;;;5116075;28;20135;-91
2023/03/24 11:12:42;;;;;;;15.75;14.90;;;;;;;;;;5116215;28;20048;-91
2023/03/24 11:15:16;;;;;;;17.17;16.35;;;;;;;;;;5115825;28;20077;-91
2023/03/24 11:17:43;;;;;;;19.30;18.30;;;;;;;;;;5116192;28;20546;-91
2023/03/24 11:20:18;;;;;;;18.02;17.10;;;;;;;;;;5116120;28;20483;-91
2023/03/24 11:22:54;;;;;;;28.10;26.95;;;;;;;;;;5115730;28;20491;-91
2023/03/24 11:25:25;;;;;;;28.85;27.65;;;;;;;;;;5116387;28;20048;-89
2023/03/24 11:27:52;;;;;;;14.25;13.45;;;;;;;;;;5114030;28;20517;-90
2023/03/24 11:30:18;;;;;;;17.55;16.83;;;;;;;;;;5116001;28;20044;-90
2023/03/24 11:32:46;;;;;;;16.30;15.60;;;;;;;;;;5115848;28;20051;-89
2023/03/24 11:35:17;;;;;;;16.10;15.45;;;;;;;;;;5116247;28;20047;-89
2023/03/24 11:37:45;;;;;;;18.10;17.25;;;;;;;;;;5116074;28;20075;-90
2023/03/24 11:40:21;;;;;;;19.13;18.33;;;;;;;;;;5115990;28;20070;-89
2023/03/24 11:42:49;;;;;;;18.77;17.77;;;;;;;;;;5115958;28;20058;-92
2023/03/24 11:45:27;;;;;;;12.63;12.02;;;;;;;;;;5113603;28;20046;-91
2023/03/24 11:47:56;;;;;;;15.23;14.52;;;;;;;;;;5113890;28;20124;-90
2023/03/24 11:50:24;;;;;;;18.45;17.45;;;;;;;;;;5114843;28;20040;-89
2023/03/24 11:52:53;;;;;;;22.52;21.60;;;;;;;;;;5116024;28;20058;-91
2023/03/24 11:55:23;;;;;;;13.77;13.05;;;;;;;;;;5115502;28;20054;-90
2023/03/24 11:57:52;;;;;;;17.73;17.00;;;;;;;;;;5098010;28;20052;-91
2023/03/24 12:00:21;;;;;;;16.90;16.20;;;;;;;;;;5115604;28;20473;-91
2023/03/24 12:02:58;;;;;;;11.85;11.35;;;;;;;;;;5116298;28;20048;-90
2023/03/24 12:05:30;;;;;;;19.35;18.52;;;;;;;;;;5118159;28;20052;-90
2023/03/24 12:08:05;;;;;;;16.67;15.95;;;;;;;;;;5116723;28;20449;-90
2023/03/24 12:10:40;;;;;;;17.58;16.70;;;;;;;;;;5116027;28;20490;-91
2023/03/24 12:13:09;;;;;;;13.02;12.50;;;;;;;;;;5116463;28;20051;-91
2023/03/24 12:15:44;;;;;;;15.07;14.43;;;;;;;;;;5116407;28;20047;-92
2023/03/24 12:18:18;;;;;;;16.25;15.15;;;;;;;;;;5115965;28;20048;-91
2023/03/24 12:20:45;;;;;;;19.67;18.88;;;;;;;;;;5116364;28;20051;-93
2023/03/24 12:23:13;;;;;;;17.67;16.88;;;;;;;;;;5115897;28;20562;-92
2023/03/24 12:25:45;;;;;;;17.00;16.38;;;;;;;;;;5115237;28;20100;-91
2023/03/24 12:28:31;;;;;;;15.90;15.15;;;;;;;;;;5115813;28;20127;-92
2023/03/24 12:31:07;;;;;;;17.70;16.95;;;;;;;;;;5111563;28;20376;-92
2023/03/24 12:33:38;;;;;;;15.90;15.18;;;;;;;;;;5115668;28;20087;-91
2023/03/24 12:36:11;;;;;;;16.63;15.82;;;;;;;;;;5115289;28;20075;-91
2023/03/24 12:38:44;;;;;;;20.05;19.20;;;;;;;;;;5115773;28;20437;-91
2023/03/24 12:41:19;;;;;;;17.65;16.95;;;;;;;;;;5116030;28;20054;-90
2023/03/24 12:43:50;;;;;;;22.77;21.80;;;;;;;;;;5116142;28;20082;-92
2023/03/24 12:46:26;;;;;;;21.23;20.27;;;;;;;;;;5116080;28;20569;-91
2023/03/24 12:49:03;;;;;;;21.05;20.13;;;;;;;;;;5115295;28;20055;-92
2023/03/24 12:51:35;;;;;;;17.88;17.13;;;;;;;;;;5115455;28;20051;-91
2023/03/24 12:54:07;;;;;;;18.92;18.13;;;;;;;;;;5115156;28;20051;-92
2023/03/24 12:56:37;;;;;;;20.98;20.10;;;;;;;;;;5115962;28;20456;-92
2023/03/24 12:59:05;;;;;;;16.60;15.77;;;;;;;;;;5116286;28;20044;-93
2023/03/24 13:01:34;;;;;;;18.40;17.58;;;;;;;;;;5116387;28;20047;-92
2023/03/24 13:04:05;;;;;;;21.63;20.60;;;;;;;;;;5116565;28;20055;-94
2023/03/24 13:06:34;;;;;;;23.70;22.70;;;;;;;;;;5116221;28;20131;-93
2023/03/24 13:09:07;;;;;;;18.80;17.88;;;;;;;;;;5117169;28;20108;-94
2023/03/24 13:11:38;;;;;;;19.63;18.83;;;;;;;;;;5095894;28;20048;-93
2023/03/24 13:14:06;;;;;;;24.77;23.83;;;;;;;;;;5095769;28;20048;-94
2023/03/24 13:16:36;;;;;;;27.27;26.27;;;;;;;;;;5106811;28;20052;-91
2023/03/24 13:19:02;;;;;;;22.52;21.60;;;;;;;;;;5115882;28;20135;-92
2023/03/24 13:21:33;;;;;;;22.30;21.38;;;;;;;;;;5115416;28;20040;-92
2023/03/24 13:24:02;;;;;;;28.60;27.35;;;;;;;;;;5115251;28;20051;-93
2023/03/24 13:26:37;;;;;;;23.02;22.10;;;;;;;;;;5115765;28;20067;-93
2023/03/24 13:29:18;;;;;;;28.60;27.45;;;;;;;;;;5115469;28;20051;-92
2023/03/24 13:31:50;;;;;;;17.25;16.50;;;;;;;;;;5115414;28;20071;-92
2023/03/24 13:34:23;;;;;;;20.63;19.73;;;;;;;;;;5114890;28;20083;-92
2023/03/24 13:36:52;;;;;;;23.00;22.05;;;;;;;;;;5114818;28;20138;-92
2023/03/24 13:39:19;;;;;;;20.27;19.38;;;;;;;;;;5115115;28;20058;-91
2023/03/24 13:41:49;;;;;;;21.30;20.40;;;;;;;;;;5114646;28;20051;-91
2023/03/24 13:44:19;;;;;;;25.15;24.15;;;;;;;;;;5098957;28;20056;-91
2023/03/24 13:47:00;;;;;;;16.52;15.80;;;;;;;;;;5114147;28;20048;-91
2023/03/24 13:49:27;;;;;;;20.52;19.63;;;;;;;;;;5114843;28;20086;-92
2023/03/24 13:51:53;;;;;;;20.60;19.77;;;;;;;;;;5114594;28;20116;-93
2023/03/24 13:54:21;;;;;;;17.85;17.08;;;;;;;;;;5114524;28;20051;-90
2023/03/24 13:56:49;;;;;;;16.13;15.35;;;;;;;;;;5114755;28;20086;-91
2023/03/24 13:59:34;;;;;;;27.63;26.58;;;;;;;;;;5114750;28;20048;-91
2023/03/24 14:02:22;;;;;;;14.77;14.07;;;;;;;;;;5114959;28;20079;-92
2023/03/24 14:04:49;;;;;;;22.73;21.73;;;;;;;;;;5113855;28;20101;-92
2023/03/24 14:07:30;;;;;;;25.20;24.20;;;;;;;;;;5114410;28;20047;-92
2023/03/24 14:09:57;;;;;;;20.67;19.85;;;;;;;;;;5114575;28;20131;-92
2023/03/24 14:12:24;;;;;;;20.35;19.52;;;;;;;;;;5114417;28;20091;-93
2023/03/24 14:15:12;;;;;;;21.13;20.27;;;;;;;;;;5105873;28;20096;-91
2023/03/24 14:17:42;;;;;;;21.58;20.50;;;;;;;;;;5108916;28;20103;-91
2023/03/24 14:20:21;;;;;;;16.23;15.43;;;;;;;;;;5114333;28;20052;-92
2023/03/24 14:22:48;;;;;;;21.98;21.15;;;;;;;;;;5119531;28;20101;-90
2023/03/24 14:25:21;;;;;;;18.63;17.90;;;;;;;;;;5120863;28;20130;-90
2023/03/24 14:27:49;;;;;;;19.67;18.85;;;;;;;;;;5118778;28;20101;-92
2023/03/24 14:30:19;;;;;;;21.65;20.75;;;;;;;;;;5118897;28;20491;-91
2023/03/24 14:32:47;;;;;;;20.85;19.92;;;;;;;;;;5117854;28;20047;-91
2023/03/24 14:35:25;;;;;;;15.20;14.57;;;;;;;;;;5117842;28;20096;-91
2023/03/24 14:37:53;;;;;;;22.05;21.15;;;;;;;;;;5117658;28;20396;-90
2023/03/24 14:40:24;;;;;;;19.88;18.70;;;;;;;;;;5117170;28;20047;-92
2023/03/24 14:42:55;;;;;;;15.00;14.25;;;;;;;;;;5117537;28;20096;-91
2023/03/24 14:45:42;;;;;;;17.63;16.63;;;;;;;;;;5111413;28;20097;-91